createdAt,value
2022-12-27T00:00:28.109Z,858.32
2022-12-27T00:01:28.043Z,858.32
2022-12-27T00:02:28.182Z,858.34
2022-12-27T00:03:28.048Z,858.37
2022-12-27T00:04:28.040Z,858.32
2022-12-27T00:05:28.072Z,858.36
2022-12-27T00:06:28.008Z,858.39
2022-12-27T00:07:27.982Z,858.36
2022-12-27T00:08:27.986Z,858.38
2022-12-27T00:09:27.958Z,858.43
2022-12-27T00:10:27.958Z,858.45
2022-12-27T00:11:27.969Z,858.47
2022-12-27T00:12:27.938Z,858.44
2022-12-27T00:13:27.923Z,858.49
2022-12-27T00:14:27.919Z,858.48
2022-12-27T00:15:27.898Z,858.50
2022-12-27T00:16:27.933Z,858.57
2022-12-27T00:17:27.885Z,858.59
2022-12-27T00:18:27.867Z,858.59
2022-12-27T00:19:27.877Z,858.56
2022-12-27T00:20:27.859Z,858.57
2022-12-27T00:21:27.843Z,858.57
2022-12-27T00:22:27.823Z,858.57
2022-12-27T00:23:27.860Z,858.55
2022-12-27T00:24:27.819Z,858.54
2022-12-27T00:25:27.789Z,858.55
2022-12-27T00:26:27.850Z,858.59
2022-12-27T00:27:27.769Z,858.61
2022-12-27T00:28:27.759Z,858.65
2022-12-27T00:29:27.784Z,858.66
2022-12-27T00:30:27.744Z,858.63
2022-12-27T00:31:27.807Z,858.67
2022-12-27T00:32:27.733Z,858.63
2022-12-27T00:33:27.716Z,858.67
2022-12-27T00:34:27.719Z,858.70
2022-12-27T00:35:27.702Z,858.76
2022-12-27T00:36:27.674Z,858.79
2022-12-27T00:37:27.707Z,858.79
2022-12-27T00:38:27.659Z,858.81
2022-12-27T00:39:27.639Z,858.82
2022-12-27T00:40:27.675Z,858.85
2022-12-27T00:41:27.631Z,858.85
2022-12-27T00:42:27.619Z,858.86
2022-12-27T00:43:27.644Z,858.87
2022-12-27T00:44:27.596Z,858.88
2022-12-27T00:45:27.644Z,858.89
2022-12-27T00:46:27.598Z,858.95
2022-12-27T00:47:27.584Z,858.94
2022-12-27T00:48:27.561Z,858.95
2022-12-27T00:49:27.580Z,858.97
2022-12-27T00:50:27.536Z,858.93
2022-12-27T00:51:27.579Z,858.93
2022-12-27T00:52:27.536Z,858.94
2022-12-27T00:53:27.491Z,859.00
2022-12-27T00:54:27.489Z,858.98
2022-12-27T00:55:27.494Z,858.95
2022-12-27T00:56:27.465Z,858.95
2022-12-27T00:57:27.454Z,858.95
2022-12-27T00:58:27.450Z,858.93
2022-12-27T00:59:27.433Z,858.94
2022-12-27T01:00:27.420Z,858.98
2022-12-27T01:01:27.638Z,858.98
2022-12-27T01:02:27.412Z,858.99
2022-12-27T01:03:27.436Z,859.01
2022-12-27T01:04:27.377Z,858.98
2022-12-27T01:05:27.371Z,859.05
2022-12-27T01:06:27.376Z,859.03
2022-12-27T01:07:27.388Z,859.03
2022-12-27T01:08:27.347Z,859.06
2022-12-27T01:09:27.327Z,859.04
2022-12-27T01:10:27.320Z,859.03
2022-12-27T01:11:27.310Z,859.00
2022-12-27T01:12:27.292Z,858.99
2022-12-27T01:13:27.314Z,858.98
2022-12-27T01:14:27.285Z,858.97
2022-12-27T01:15:27.258Z,858.94
2022-12-27T01:16:27.313Z,858.97
2022-12-27T01:17:27.245Z,858.92
2022-12-27T01:18:27.229Z,858.94
2022-12-27T01:19:27.255Z,858.92
2022-12-27T01:20:27.227Z,858.93
2022-12-27T01:21:27.196Z,858.92
2022-12-27T01:22:27.198Z,858.95
2022-12-27T01:23:27.192Z,858.94
2022-12-27T01:24:27.175Z,858.94
2022-12-27T01:25:27.307Z,858.94
2022-12-27T01:26:27.143Z,858.95
2022-12-27T01:27:27.146Z,858.92
2022-12-27T01:28:27.130Z,858.89
2022-12-27T01:29:27.106Z,858.93
2022-12-27T01:30:27.111Z,858.91
2022-12-27T01:31:27.227Z,858.94
2022-12-27T01:32:27.094Z,858.93
2022-12-27T01:33:27.069Z,858.90
2022-12-27T01:34:27.057Z,858.97
2022-12-27T01:35:27.043Z,858.96
2022-12-27T01:36:27.052Z,858.94
2022-12-27T01:37:27.077Z,858.99
2022-12-27T01:38:27.017Z,858.95
2022-12-27T01:39:27.023Z,858.91
2022-12-27T01:40:26.995Z,858.94
2022-12-27T01:41:26.980Z,858.98
2022-12-27T01:42:26.975Z,858.94
2022-12-27T01:43:27.025Z,858.97
2022-12-27T01:44:26.955Z,858.99
2022-12-27T01:45:27.008Z,859.02
2022-12-27T01:46:26.931Z,858.99
2022-12-27T01:47:26.917Z,859.01
2022-12-27T01:48:26.911Z,859.00
2022-12-27T01:49:26.914Z,859.02
2022-12-27T01:50:26.892Z,859.04
2022-12-27T01:51:26.933Z,859.08
2022-12-27T01:52:26.872Z,859.08
2022-12-27T01:53:26.853Z,859.14
2022-12-27T01:54:26.862Z,859.12
2022-12-27T01:55:26.851Z,859.15
2022-12-27T01:56:26.826Z,859.16
2022-12-27T01:57:26.851Z,859.16
2022-12-27T01:58:26.808Z,859.14
2022-12-27T01:59:26.793Z,859.17
2022-12-27T02:00:26.805Z,859.17
2022-12-27T02:01:26.928Z,859.14
2022-12-27T02:02:26.936Z,859.17
2022-12-27T02:03:26.786Z,859.15
2022-12-27T02:04:26.738Z,859.17
2022-12-27T02:05:26.730Z,859.16
2022-12-27T02:06:26.731Z,859.17
2022-12-27T02:07:26.703Z,859.17
2022-12-27T02:08:26.700Z,859.18
2022-12-27T02:09:26.747Z,859.23
2022-12-27T02:10:26.687Z,859.19
2022-12-27T02:11:26.686Z,859.15
2022-12-27T02:12:26.654Z,859.15
2022-12-27T02:13:26.644Z,859.11
2022-12-27T02:14:28.433Z,859.17
2022-12-27T02:15:26.695Z,859.16
2022-12-27T02:16:26.643Z,859.18
2022-12-27T02:17:26.623Z,859.20
2022-12-27T02:18:26.594Z,859.15
2022-12-27T02:19:26.575Z,859.19
2022-12-27T02:20:26.582Z,859.21
2022-12-27T02:21:26.592Z,859.21
2022-12-27T02:22:26.546Z,859.19
2022-12-27T02:23:26.543Z,859.18
2022-12-27T02:24:26.531Z,859.21
2022-12-27T02:25:26.523Z,859.20
2022-12-27T02:26:26.518Z,859.21
2022-12-27T02:27:26.544Z,859.25
2022-12-27T02:28:26.488Z,859.21
2022-12-27T02:29:26.471Z,859.23
2022-12-27T02:30:26.485Z,859.25
2022-12-27T02:31:26.450Z,859.26
2022-12-27T02:32:26.444Z,859.27
2022-12-27T02:33:26.485Z,859.30
2022-12-27T02:34:26.425Z,859.25
2022-12-27T02:35:26.411Z,859.29
2022-12-27T02:36:26.416Z,859.25
2022-12-27T02:37:26.388Z,859.25
2022-12-27T02:38:26.378Z,859.27
2022-12-27T02:39:26.402Z,859.21
2022-12-27T02:40:26.357Z,859.27
2022-12-27T02:41:26.356Z,859.24
2022-12-27T02:42:26.340Z,859.27
2022-12-27T02:43:26.355Z,859.29
2022-12-27T02:44:26.320Z,859.31
2022-12-27T02:45:26.349Z,859.30
2022-12-27T02:46:26.361Z,859.29
2022-12-27T02:47:26.279Z,859.26
2022-12-27T02:48:26.271Z,859.28
2022-12-27T02:49:26.271Z,859.22
2022-12-27T02:50:26.252Z,859.28
2022-12-27T02:51:26.286Z,859.26
2022-12-27T02:52:26.229Z,859.25
2022-12-27T02:53:26.219Z,859.26
2022-12-27T02:54:26.217Z,859.27
2022-12-27T02:55:26.201Z,859.25
2022-12-27T02:56:26.188Z,859.29
2022-12-27T02:57:26.205Z,859.32
2022-12-27T02:58:26.168Z,859.24
2022-12-27T02:59:26.178Z,859.29
2022-12-27T03:00:26.159Z,859.30
2022-12-27T03:01:26.207Z,859.26
2022-12-27T03:02:26.444Z,859.30
2022-12-27T03:03:26.146Z,859.25
2022-12-27T03:04:26.102Z,859.26
2022-12-27T03:05:26.088Z,859.23
2022-12-27T03:06:26.080Z,859.22
2022-12-27T03:07:26.070Z,859.23
2022-12-27T03:08:26.085Z,859.24
2022-12-27T03:09:26.079Z,859.26
2022-12-27T03:10:26.034Z,859.27
2022-12-27T03:11:26.027Z,859.28
2022-12-27T03:12:26.022Z,859.30
2022-12-27T03:13:26.005Z,859.28
2022-12-27T03:14:25.992Z,859.31
2022-12-27T03:15:30.483Z,859.35
2022-12-27T03:16:27.042Z,859.32
2022-12-27T03:17:25.973Z,859.33
2022-12-27T03:18:25.947Z,859.31
2022-12-27T03:19:25.951Z,859.32
2022-12-27T03:20:25.925Z,859.28
2022-12-27T03:21:25.953Z,859.35
2022-12-27T03:22:25.904Z,859.33
2022-12-27T03:23:25.896Z,859.35
2022-12-27T03:24:25.883Z,859.32
2022-12-27T03:25:25.890Z,859.34
2022-12-27T03:26:25.869Z,859.30
2022-12-27T03:27:25.892Z,859.26
2022-12-27T03:28:25.858Z,859.28
2022-12-27T03:29:25.841Z,859.24
2022-12-27T03:30:25.834Z,859.28
2022-12-27T03:31:25.836Z,859.26
2022-12-27T03:32:25.801Z,859.29
2022-12-27T03:33:25.829Z,859.34
2022-12-27T03:34:25.777Z,859.35
2022-12-27T03:35:25.770Z,859.32
2022-12-27T03:36:25.775Z,859.27
2022-12-27T03:37:25.748Z,859.32
2022-12-27T03:38:25.739Z,859.25
2022-12-27T03:39:25.767Z,859.28
2022-12-27T03:40:25.720Z,859.29
2022-12-27T03:41:25.717Z,859.31
2022-12-27T03:42:25.690Z,859.31
2022-12-27T03:43:25.684Z,859.30
2022-12-27T03:44:25.675Z,859.29
2022-12-27T03:45:25.726Z,859.30
2022-12-27T03:46:25.708Z,859.28
2022-12-27T03:47:25.679Z,859.31
2022-12-27T03:48:25.626Z,859.30
2022-12-27T03:49:25.620Z,859.35
2022-12-27T03:50:25.607Z,859.37
2022-12-27T03:51:25.679Z,859.33
2022-12-27T03:52:25.586Z,859.38
2022-12-27T03:53:25.577Z,859.35
2022-12-27T03:54:25.562Z,859.36
2022-12-27T03:55:31.497Z,859.36
2022-12-27T03:56:26.552Z,859.38
2022-12-27T03:57:25.575Z,859.39
2022-12-27T03:58:25.521Z,859.37
2022-12-27T03:59:25.515Z,859.40
2022-12-27T04:00:25.514Z,859.34
2022-12-27T04:01:25.627Z,859.41
2022-12-27T04:02:25.738Z,859.44
2022-12-27T04:03:25.612Z,859.50
2022-12-27T04:04:25.464Z,859.46
2022-12-27T04:05:25.448Z,859.54
2022-12-27T04:06:25.438Z,859.51
2022-12-27T04:07:25.439Z,859.54
2022-12-27T04:08:25.427Z,859.51
2022-12-27T04:09:25.460Z,859.45
2022-12-27T04:10:25.391Z,859.43
2022-12-27T04:11:25.385Z,859.45
2022-12-27T04:12:25.375Z,859.55
2022-12-27T04:13:25.381Z,859.50
2022-12-27T04:14:25.354Z,859.48
2022-12-27T04:15:25.415Z,859.53
2022-12-27T04:16:25.374Z,859.51
2022-12-27T04:17:25.326Z,859.50
2022-12-27T04:18:25.308Z,859.51
2022-12-27T04:19:25.317Z,859.50
2022-12-27T04:20:25.289Z,859.44
2022-12-27T04:21:25.332Z,859.41
2022-12-27T04:22:25.262Z,859.41
2022-12-27T04:23:25.259Z,859.38
2022-12-27T04:24:25.269Z,859.36
2022-12-27T04:25:25.238Z,859.36
2022-12-27T04:26:25.243Z,859.37
2022-12-27T04:27:25.253Z,859.41
2022-12-27T04:28:25.216Z,859.43
2022-12-27T04:29:25.197Z,859.46
2022-12-27T04:30:25.182Z,859.45
2022-12-27T04:31:25.234Z,859.44
2022-12-27T04:32:25.168Z,859.44
2022-12-27T04:33:25.205Z,859.44
2022-12-27T04:34:25.153Z,859.44
2022-12-27T04:35:25.154Z,859.46
2022-12-27T04:36:25.125Z,859.47
2022-12-27T04:37:25.113Z,859.50
2022-12-27T04:38:25.092Z,859.50
2022-12-27T04:39:25.122Z,859.50
2022-12-27T04:40:25.092Z,859.47
2022-12-27T04:41:25.064Z,859.53
2022-12-27T04:42:25.066Z,859.51
2022-12-27T04:43:25.056Z,859.58
2022-12-27T04:44:25.049Z,859.57
2022-12-27T04:45:25.088Z,859.62
2022-12-27T04:46:25.052Z,859.57
2022-12-27T04:47:25.003Z,859.53
2022-12-27T04:48:24.989Z,859.50
2022-12-27T04:49:24.980Z,859.52
2022-12-27T04:50:24.980Z,859.54
2022-12-27T04:51:25.013Z,859.56
2022-12-27T04:52:24.965Z,859.61
2022-12-27T04:53:24.942Z,859.55
2022-12-27T04:54:24.925Z,859.50
2022-12-27T04:55:24.928Z,859.53
2022-12-27T04:56:24.902Z,859.49
2022-12-27T04:57:24.951Z,859.52
2022-12-27T04:58:24.891Z,859.52
2022-12-27T04:59:24.886Z,859.59
2022-12-27T05:00:24.862Z,859.57
2022-12-27T05:01:25.015Z,859.56
2022-12-27T05:02:25.040Z,859.60
2022-12-27T05:03:24.923Z,859.56
2022-12-27T05:04:24.926Z,859.56
2022-12-27T05:05:24.817Z,859.61
2022-12-27T05:06:24.802Z,859.67
2022-12-27T05:07:24.803Z,859.62
2022-12-27T05:08:24.781Z,859.63
2022-12-27T05:09:24.806Z,859.64
2022-12-27T05:10:24.785Z,859.66
2022-12-27T05:11:24.768Z,859.64
2022-12-27T05:12:24.740Z,859.64
2022-12-27T05:13:24.726Z,859.65
2022-12-27T05:14:24.743Z,859.66
2022-12-27T05:15:24.755Z,859.71
2022-12-27T05:16:24.771Z,859.71
2022-12-27T05:17:24.786Z,859.76
2022-12-27T05:18:24.695Z,859.75
2022-12-27T05:19:24.656Z,859.74
2022-12-27T05:20:24.651Z,859.78
2022-12-27T05:21:24.688Z,859.76
2022-12-27T05:22:24.635Z,859.75
2022-12-27T05:23:24.731Z,859.74
2022-12-27T05:24:24.609Z,859.73
2022-12-27T05:25:24.593Z,859.74
2022-12-27T05:26:24.596Z,859.81
2022-12-27T05:27:24.617Z,859.76
2022-12-27T05:28:24.566Z,859.78
2022-12-27T05:29:24.564Z,859.74
2022-12-27T05:30:24.548Z,859.78
2022-12-27T05:31:24.582Z,859.77
2022-12-27T05:32:24.525Z,859.78
2022-12-27T05:33:24.574Z,859.72
2022-12-27T05:34:24.514Z,859.70
2022-12-27T05:35:24.504Z,859.67
2022-12-27T05:36:24.479Z,859.73
2022-12-27T05:37:24.472Z,859.70
2022-12-27T05:38:24.460Z,859.70
2022-12-27T05:39:24.524Z,859.71
2022-12-27T05:40:24.451Z,859.75
2022-12-27T05:41:24.435Z,859.74
2022-12-27T05:42:24.436Z,859.71
2022-12-27T05:43:24.407Z,859.76
2022-12-27T05:44:24.409Z,859.82
2022-12-27T05:45:24.424Z,859.78
2022-12-27T05:46:24.448Z,859.76
2022-12-27T05:47:24.379Z,859.79
2022-12-27T05:48:24.352Z,859.84
2022-12-27T05:49:24.339Z,859.76
2022-12-27T05:50:24.339Z,859.74
2022-12-27T05:51:24.356Z,859.78
2022-12-27T05:52:24.308Z,859.73
2022-12-27T05:53:24.292Z,859.75
2022-12-27T05:54:24.289Z,859.75
2022-12-27T05:55:24.302Z,859.80
2022-12-27T05:56:24.263Z,859.82
2022-12-27T05:57:24.311Z,859.82
2022-12-27T05:58:24.241Z,859.83
2022-12-27T05:59:24.231Z,859.79
2022-12-27T06:00:24.225Z,859.79
2022-12-27T06:01:24.242Z,859.81
2022-12-27T06:02:24.437Z,859.75
2022-12-27T06:03:24.342Z,859.81
2022-12-27T06:04:24.180Z,859.81
2022-12-27T06:05:24.175Z,859.79
2022-12-27T06:06:24.159Z,859.80
2022-12-27T06:07:24.144Z,859.76
2022-12-27T06:08:24.139Z,859.84
2022-12-27T06:09:24.178Z,859.85
2022-12-27T06:10:24.118Z,859.80
2022-12-27T06:11:24.121Z,859.81
2022-12-27T06:12:24.096Z,859.85
2022-12-27T06:13:24.087Z,859.91
2022-12-27T06:14:24.088Z,859.90
2022-12-27T06:15:24.112Z,859.89
2022-12-27T06:16:24.107Z,859.91
2022-12-27T06:17:24.036Z,859.92
2022-12-27T06:18:24.030Z,859.87
2022-12-27T06:19:24.029Z,859.96
2022-12-27T06:20:24.008Z,859.94
2022-12-27T06:21:24.045Z,859.95
2022-12-27T06:22:23.986Z,859.98
2022-12-27T06:23:24.085Z,860.01
2022-12-27T06:24:23.968Z,859.95
2022-12-27T06:25:23.963Z,860.01
2022-12-27T06:26:23.952Z,860.07
2022-12-27T06:27:23.983Z,860.05
2022-12-27T06:28:23.940Z,860.08
2022-12-27T06:29:23.925Z,860.08
2022-12-27T06:30:23.910Z,860.04
2022-12-27T06:31:24.013Z,860.10
2022-12-27T06:32:23.884Z,860.12
2022-12-27T06:33:23.925Z,860.09
2022-12-27T06:34:23.861Z,860.09
2022-12-27T06:35:23.845Z,860.15
2022-12-27T06:36:23.839Z,860.12
2022-12-27T06:37:23.826Z,860.19
2022-12-27T06:38:23.817Z,860.14
2022-12-27T06:39:23.871Z,860.17
2022-12-27T06:40:23.822Z,860.17
2022-12-27T06:41:23.787Z,860.19
2022-12-27T06:42:23.779Z,860.24
2022-12-27T06:43:23.780Z,860.22
2022-12-27T06:44:23.767Z,860.22
2022-12-27T06:45:23.967Z,860.23
2022-12-27T06:46:23.771Z,860.22
2022-12-27T06:47:23.727Z,860.23
2022-12-27T06:48:23.721Z,860.24
2022-12-27T06:49:23.696Z,860.27
2022-12-27T06:50:23.689Z,860.25
2022-12-27T06:51:23.722Z,860.30
2022-12-27T06:52:23.685Z,860.35
2022-12-27T06:53:23.658Z,860.36
2022-12-27T06:54:23.663Z,860.36
2022-12-27T06:55:23.636Z,860.38
2022-12-27T06:56:23.638Z,860.38
2022-12-27T06:57:23.670Z,860.42
2022-12-27T06:58:23.606Z,860.39
2022-12-27T06:59:23.621Z,860.42
2022-12-27T07:00:23.596Z,860.42
2022-12-27T07:01:23.673Z,860.45
2022-12-27T07:02:23.687Z,860.44
2022-12-27T07:03:23.624Z,860.40
2022-12-27T07:04:23.541Z,860.46
2022-12-27T07:05:23.527Z,860.46
2022-12-27T07:06:23.544Z,860.46
2022-12-27T07:07:23.507Z,860.42
2022-12-27T07:08:23.509Z,860.47
2022-12-27T07:09:23.518Z,860.40
2022-12-27T07:10:23.477Z,860.42
2022-12-27T07:11:23.477Z,860.46
2022-12-27T07:12:23.457Z,860.45
2022-12-27T07:13:23.451Z,860.46
2022-12-27T07:14:23.446Z,860.43
2022-12-27T07:15:23.480Z,860.47
2022-12-27T07:16:23.452Z,860.44
2022-12-27T07:17:23.410Z,860.42
2022-12-27T07:18:23.389Z,860.43
2022-12-27T07:19:23.382Z,860.39
2022-12-27T07:20:23.369Z,860.43
2022-12-27T07:21:23.419Z,860.42
2022-12-27T07:22:23.370Z,860.44
2022-12-27T07:23:23.356Z,860.44
2022-12-27T07:24:23.327Z,860.48
2022-12-27T07:25:23.331Z,860.52
2022-12-27T07:26:23.349Z,860.48
2022-12-27T07:27:23.359Z,860.49
2022-12-27T07:28:23.294Z,860.53
2022-12-27T07:29:23.285Z,860.50
2022-12-27T07:30:23.260Z,860.55
2022-12-27T07:31:23.348Z,860.58
2022-12-27T07:32:23.256Z,860.60
2022-12-27T07:33:23.284Z,860.62
2022-12-27T07:34:23.231Z,860.62
2022-12-27T07:35:23.221Z,860.63
2022-12-27T07:36:23.200Z,860.70
2022-12-27T07:37:23.192Z,860.68
2022-12-27T07:38:23.179Z,860.70
2022-12-27T07:39:23.227Z,860.70
2022-12-27T07:40:23.168Z,860.66
2022-12-27T07:41:23.146Z,860.65
2022-12-27T07:42:23.136Z,860.68
2022-12-27T07:43:23.127Z,860.67
2022-12-27T07:44:23.236Z,860.69
2022-12-27T07:45:23.130Z,860.68
2022-12-27T07:46:23.121Z,860.70
2022-12-27T07:47:23.100Z,860.80
2022-12-27T07:48:23.076Z,860.79
2022-12-27T07:49:23.063Z,860.82
2022-12-27T07:50:23.063Z,860.78
2022-12-27T07:51:23.079Z,860.77
2022-12-27T07:52:23.027Z,860.74
2022-12-27T07:53:23.021Z,860.79
2022-12-27T07:54:23.118Z,860.74
2022-12-27T07:55:23.004Z,860.75
2022-12-27T07:56:26.123Z,860.75
2022-12-27T07:57:23.020Z,860.76
2022-12-27T07:58:22.969Z,860.80
2022-12-27T07:59:22.958Z,860.74
2022-12-27T08:00:22.958Z,860.82
2022-12-27T08:01:23.078Z,860.79
2022-12-27T08:02:23.113Z,860.81
2022-12-27T08:03:23.004Z,860.80
2022-12-27T08:04:22.903Z,860.79
2022-12-27T08:05:27.695Z,860.79
2022-12-27T08:06:23.897Z,860.85
2022-12-27T08:07:22.874Z,860.83
2022-12-27T08:08:22.865Z,860.84
2022-12-27T08:09:22.912Z,860.85
2022-12-27T08:10:22.841Z,860.84
2022-12-27T08:11:22.827Z,860.85
2022-12-27T08:12:22.836Z,860.82
2022-12-27T08:13:22.820Z,860.83
2022-12-27T08:14:22.797Z,860.82
2022-12-27T08:15:22.795Z,860.83
2022-12-27T08:16:22.884Z,860.81
2022-12-27T08:17:22.771Z,860.82
2022-12-27T08:18:22.784Z,860.91
2022-12-27T08:19:22.782Z,860.88
2022-12-27T08:20:22.731Z,860.86
2022-12-27T08:21:22.737Z,860.89
2022-12-27T08:22:22.710Z,860.95
2022-12-27T08:23:22.716Z,860.91
2022-12-27T08:24:22.689Z,860.91
2022-12-27T08:25:22.684Z,860.86
2022-12-27T08:26:22.688Z,860.88
2022-12-27T08:27:22.702Z,860.87
2022-12-27T08:28:22.661Z,860.90
2022-12-27T08:29:22.637Z,860.88
2022-12-27T08:30:22.629Z,860.88
2022-12-27T08:31:22.661Z,860.87
2022-12-27T08:32:22.601Z,860.86
2022-12-27T08:33:22.618Z,860.81
2022-12-27T08:34:22.593Z,860.87
2022-12-27T08:35:51.709Z,860.85
2022-12-27T08:36:54.770Z,860.90
2022-12-27T08:37:23.557Z,860.90
2022-12-27T08:38:22.583Z,860.86
2022-12-27T08:39:22.560Z,860.88
2022-12-27T08:40:22.529Z,860.88
2022-12-27T08:41:22.506Z,860.87
2022-12-27T08:42:22.496Z,860.93
2022-12-27T08:43:22.490Z,860.91
2022-12-27T08:44:22.487Z,860.90
2022-12-27T08:45:22.486Z,860.89
2022-12-27T08:46:22.768Z,860.95
2022-12-27T08:47:22.459Z,860.96
2022-12-27T08:48:22.484Z,860.94
2022-12-27T08:49:22.438Z,860.96
2022-12-27T08:50:22.411Z,860.95
2022-12-27T08:51:32.645Z,860.94
2022-12-27T08:52:23.402Z,860.98
2022-12-27T08:53:22.403Z,860.97
2022-12-27T08:54:22.370Z,860.97
2022-12-27T08:55:22.364Z,860.99
2022-12-27T08:56:22.348Z,860.98
2022-12-27T08:57:22.448Z,860.97
2022-12-27T08:58:22.324Z,861.00
2022-12-27T08:59:22.327Z,860.98
2022-12-27T09:00:22.304Z,860.99
2022-12-27T09:01:22.430Z,861.01
2022-12-27T09:02:22.365Z,861.04
2022-12-27T09:03:22.393Z,861.00
2022-12-27T09:04:22.264Z,861.05
2022-12-27T09:05:22.272Z,861.00
2022-12-27T09:06:22.240Z,861.00
2022-12-27T09:07:22.262Z,860.98
2022-12-27T09:08:22.220Z,860.98
2022-12-27T09:09:22.221Z,860.97
2022-12-27T09:10:22.196Z,860.96
2022-12-27T09:11:22.238Z,860.96
2022-12-27T09:12:22.177Z,861.01
2022-12-27T09:13:22.184Z,861.00
2022-12-27T09:14:22.162Z,861.02
2022-12-27T09:15:22.147Z,860.99
2022-12-27T09:16:22.174Z,860.96
2022-12-27T09:17:22.132Z,861.00
2022-12-27T09:18:22.138Z,860.97
2022-12-27T09:19:22.109Z,861.00
2022-12-27T09:20:22.091Z,860.96
2022-12-27T09:21:22.085Z,860.97
2022-12-27T09:22:22.067Z,861.03
2022-12-27T09:23:22.085Z,860.99
2022-12-27T09:24:22.065Z,860.96
2022-12-27T09:25:22.169Z,860.98
2022-12-27T09:26:22.032Z,861.00
2022-12-27T09:27:22.031Z,860.99
2022-12-27T09:28:22.002Z,861.00
2022-12-27T09:29:22.015Z,861.00
2022-12-27T09:30:21.983Z,861.04
2022-12-27T09:31:22.105Z,861.06
2022-12-27T09:32:21.987Z,861.08
2022-12-27T09:33:21.954Z,861.05
2022-12-27T09:34:21.943Z,861.05
2022-12-27T09:35:21.930Z,861.11
2022-12-27T09:36:21.916Z,861.07
2022-12-27T09:37:21.920Z,861.04
2022-12-27T09:38:21.909Z,861.09
2022-12-27T09:39:21.910Z,861.03
2022-12-27T09:40:22.027Z,861.06
2022-12-27T09:42:11.702Z,861.09
2022-12-27T09:43:27.514Z,861.08
2022-12-27T09:44:22.866Z,861.05
2022-12-27T09:45:21.824Z,861.06
2022-12-27T09:46:21.876Z,861.10
2022-12-27T09:47:21.804Z,861.12
2022-12-27T09:48:22.160Z,861.15
2022-12-27T09:49:21.781Z,861.15
2022-12-27T09:50:21.835Z,861.14
2022-12-27T09:51:21.775Z,861.18
2022-12-27T09:52:21.748Z,861.16
2022-12-27T09:53:21.738Z,861.09
2022-12-27T09:54:21.739Z,861.09
2022-12-27T09:55:21.740Z,861.10
2022-12-27T09:56:21.709Z,861.06
2022-12-27T09:57:21.722Z,861.04
2022-12-27T09:58:21.689Z,861.06
2022-12-27T09:59:21.675Z,861.10
2022-12-27T10:00:34.627Z,861.08
2022-12-27T10:01:22.857Z,861.16
2022-12-27T10:02:21.820Z,861.10
2022-12-27T10:03:21.644Z,861.11
2022-12-27T10:04:21.696Z,861.14
2022-12-27T10:05:22.808Z,861.11
2022-12-27T10:06:21.604Z,861.12
2022-12-27T10:07:21.589Z,861.14
2022-12-27T10:08:21.577Z,861.08
2022-12-27T10:09:21.578Z,861.11
2022-12-27T10:10:21.588Z,861.12
2022-12-27T10:11:21.574Z,861.14
2022-12-27T10:12:24.359Z,861.13
2022-12-27T10:13:22.537Z,861.11
2022-12-27T10:14:21.519Z,861.12
2022-12-27T10:15:21.506Z,861.14
2022-12-27T10:16:21.549Z,861.18
2022-12-27T10:17:21.491Z,861.20
2022-12-27T10:18:21.482Z,861.22
2022-12-27T10:19:21.462Z,861.24
2022-12-27T10:20:21.457Z,861.22
2022-12-27T10:21:21.442Z,861.21
2022-12-27T10:22:21.437Z,861.21
2022-12-27T10:23:21.423Z,861.18
2022-12-27T10:24:21.407Z,861.16
2022-12-27T10:25:21.403Z,861.14
2022-12-27T10:26:21.425Z,861.16
2022-12-27T10:27:21.433Z,861.11
2022-12-27T10:28:21.365Z,861.14
2022-12-27T10:29:21.376Z,861.10
2022-12-27T10:30:21.351Z,861.11
2022-12-27T10:31:21.339Z,861.08
2022-12-27T10:32:21.345Z,861.07
2022-12-27T10:33:21.312Z,861.10
2022-12-27T10:34:21.299Z,861.07
2022-12-27T10:35:21.308Z,861.08
2022-12-27T10:36:21.285Z,861.08
2022-12-27T10:37:21.276Z,861.10
2022-12-27T10:38:21.314Z,861.13
2022-12-27T10:39:21.251Z,861.10
2022-12-27T10:40:21.238Z,861.14
2022-12-27T10:41:21.283Z,861.13
2022-12-27T10:42:21.214Z,861.13
2022-12-27T10:43:21.236Z,861.16
2022-12-27T10:44:21.196Z,861.20
2022-12-27T10:45:21.188Z,861.21
2022-12-27T10:46:21.273Z,861.16
2022-12-27T10:47:21.176Z,861.22
2022-12-27T10:48:21.148Z,861.15
2022-12-27T10:49:22.061Z,861.16
2022-12-27T10:50:21.137Z,861.15
2022-12-27T10:51:21.131Z,861.13
2022-12-27T10:52:21.179Z,861.14
2022-12-27T10:53:21.103Z,861.10
2022-12-27T10:54:21.090Z,861.12
2022-12-27T10:55:21.091Z,861.11
2022-12-27T10:56:21.078Z,861.06
2022-12-27T10:57:21.056Z,861.13
2022-12-27T10:58:21.099Z,861.08
2022-12-27T10:59:21.067Z,861.08
2022-12-27T11:00:21.025Z,861.06
2022-12-27T11:01:21.102Z,861.09
2022-12-27T11:02:21.099Z,861.12
2022-12-27T11:03:20.997Z,861.07
2022-12-27T11:04:21.875Z,861.07
2022-12-27T11:05:20.973Z,861.12
2022-12-27T11:06:20.958Z,861.16
2022-12-27T11:07:20.962Z,861.09
2022-12-27T11:08:20.949Z,861.13
2022-12-27T11:09:20.928Z,861.15
2022-12-27T11:10:20.962Z,861.16
2022-12-27T11:11:20.928Z,861.13
2022-12-27T11:12:20.899Z,861.14
2022-12-27T11:13:20.897Z,861.11
2022-12-27T11:14:20.879Z,861.12
2022-12-27T11:15:20.884Z,861.10
2022-12-27T11:16:20.941Z,861.11
2022-12-27T11:17:20.848Z,861.11
2022-12-27T11:18:20.841Z,861.16
2022-12-27T11:19:20.823Z,861.12
2022-12-27T11:20:20.810Z,861.15
2022-12-27T11:21:27.474Z,861.13
2022-12-27T11:22:21.799Z,861.08
2022-12-27T11:23:20.803Z,861.08
2022-12-27T11:24:20.777Z,861.10
2022-12-27T11:25:20.777Z,861.04
2022-12-27T11:26:20.748Z,861.01
2022-12-27T11:27:20.770Z,861.04
2022-12-27T11:28:20.736Z,861.02
2022-12-27T11:29:20.714Z,861.05
2022-12-27T11:30:20.708Z,861.05
2022-12-27T11:31:20.756Z,861.00
2022-12-27T11:32:20.683Z,860.98
2022-12-27T11:33:24.690Z,860.98
2022-12-27T11:34:20.677Z,861.00
2022-12-27T11:35:20.656Z,860.98
2022-12-27T11:36:20.643Z,860.96
2022-12-27T11:37:20.628Z,860.94
2022-12-27T11:38:20.620Z,860.92
2022-12-27T11:39:20.741Z,860.94
2022-12-27T11:40:20.599Z,860.86
2022-12-27T11:41:26.090Z,860.90
2022-12-27T11:42:21.585Z,860.88
2022-12-27T11:43:20.563Z,860.86
2022-12-27T11:44:20.597Z,860.82
2022-12-27T11:45:20.614Z,860.89
2022-12-27T11:46:20.639Z,860.94
2022-12-27T11:47:20.779Z,860.90
2022-12-27T11:48:20.542Z,860.88
2022-12-27T11:49:20.538Z,860.88
2022-12-27T11:50:20.494Z,860.87
2022-12-27T11:51:20.518Z,860.87
2022-12-27T11:52:20.470Z,860.84
2022-12-27T11:53:20.460Z,860.80
2022-12-27T11:54:20.448Z,860.76
2022-12-27T11:55:20.452Z,860.80
2022-12-27T11:56:20.436Z,860.80
2022-12-27T11:57:20.479Z,860.77
2022-12-27T11:58:20.408Z,860.74
2022-12-27T11:59:20.392Z,860.72
2022-12-27T12:00:20.399Z,860.68
2022-12-27T12:01:20.422Z,860.69
2022-12-27T12:02:20.427Z,860.65
2022-12-27T12:03:20.425Z,860.68
2022-12-27T12:04:20.349Z,860.65
2022-12-27T12:05:20.338Z,860.63
2022-12-27T12:06:20.332Z,860.64
2022-12-27T12:07:20.310Z,860.64
2022-12-27T12:08:20.347Z,860.60
2022-12-27T12:09:20.358Z,860.61
2022-12-27T12:10:20.280Z,860.57
2022-12-27T12:11:20.268Z,860.57
2022-12-27T12:12:20.282Z,860.55
2022-12-27T12:13:20.245Z,860.57
2022-12-27T12:14:20.237Z,860.58
2022-12-27T12:15:20.265Z,860.60
2022-12-27T12:16:20.264Z,860.57
2022-12-27T12:17:20.205Z,860.61
2022-12-27T12:18:20.207Z,860.56
2022-12-27T12:19:20.201Z,860.54
2022-12-27T12:20:20.172Z,860.57
2022-12-27T12:21:20.208Z,860.52
2022-12-27T12:22:20.154Z,860.49
2022-12-27T12:23:20.153Z,860.55
2022-12-27T12:24:20.136Z,860.49
2022-12-27T12:25:20.115Z,860.47
2022-12-27T12:26:20.107Z,860.47
2022-12-27T12:27:20.137Z,860.40
2022-12-27T12:28:55.549Z,860.46
2022-12-27T12:29:21.183Z,860.45